Time;durP1;ratioP1;P1;durP2;ratioP2;P2;SDS_P1;SDS_P2;PMS_P1;PMS_P2;Temp;Humidity;BMP_temperature;BMP_pressure;BME280_temperature;BME280_humidity;BME280_pressure;Samples;Min_cycle;Max_cycle;Signal;HPM_P1;HPM_P2
2021/05/13 00:02:41;;;;;;;18.98;16.97;;;;;;;15.38;71.67;99028.79;2077930;85;27543;-63
2021/05/13 00:05:44;;;;;;;20.12;16.65;;;;;;;15.38;71.69;99022.88;2104844;84;28730;-62
2021/05/13 00:08:47;;;;;;;18.82;16.23;;;;;;;15.40;71.89;99015.98;2059390;86;31447;-62
2021/05/13 00:11:51;;;;;;;18.35;15.90;;;;;;;15.41;71.82;99016.34;2059451;86;34076;-62
2021/05/13 00:14:53;;;;;;;18.45;16.23;;;;;;;15.41;71.95;99025.31;2058959;86;30252;-62
2021/05/13 00:17:56;;;;;;;19.57;15.58;;;;;;;15.41;71.82;99031.19;2059816;86;27613;-62
2021/05/13 00:20:58;;;;;;;17.55;15.75;;;;;;;15.41;71.82;99033.89;2059515;86;28636;-61
2021/05/13 00:23:59;;;;;;;17.60;14.93;;;;;;;15.42;71.83;99039.16;2053447;86;31316;-62
2021/05/13 00:27:02;;;;;;;19.37;15.38;;;;;;;15.41;71.74;99032.05;2029063;87;34279;-62
2021/05/13 00:30:06;;;;;;;18.92;15.30;;;;;;;15.37;71.65;99026.57;2029116;87;30056;-61
2021/05/13 00:33:11;;;;;;;17.25;15.05;;;;;;;15.36;71.68;99030.26;2029080;87;27696;-62
2021/05/13 00:36:13;;;;;;;19.23;16.30;;;;;;;15.31;71.70;99029.33;2059569;86;29001;-68
2021/05/13 00:39:14;;;;;;;20.90;16.27;;;;;;;15.29;71.75;99027.77;2062993;86;31774;-64
2021/05/13 00:42:16;;;;;;;17.82;15.93;;;;;;;15.29;71.99;99034.52;2062582;86;33303;-70
2021/05/13 00:45:19;;;;;;;20.08;15.88;;;;;;;15.30;71.99;99039.77;2045150;86;29453;-64
2021/05/13 00:48:21;;;;;;;20.08;16.45;;;;;;;15.33;72.12;99037.28;2042360;85;28021;-62
2021/05/13 00:51:22;;;;;;;22.42;18.60;;;;;;;15.36;72.17;99040.22;2041824;87;29935;-62
2021/05/13 00:54:23;;;;;;;23.22;18.77;;;;;;;15.38;72.33;99039.59;2063790;85;30710;-62
2021/05/13 00:57:27;;;;;;;27.58;20.57;;;;;;;15.40;72.26;99038.92;2062300;85;33903;-62
2021/05/13 01:00:37;;;;;;;24.10;18.75;;;;;;;15.44;72.31;99044.41;2076235;85;29039;-64
2021/05/13 01:03:35;;;;;;;22.70;19.23;;;;;;;15.48;72.29;99045.84;2075174;85;27548;-69
2021/05/13 01:06:36;;;;;;;22.02;18.95;;;;;;;15.52;72.27;99051.33;2144681;82;29158;-65
2021/05/13 01:09:38;;;;;;;25.45;18.90;;;;;;;15.57;72.21;99049.56;2152759;82;31348;-70
2021/05/13 01:12:42;;;;;;;20.23;15.95;;;;;;;15.61;72.28;99042.89;2140132;82;34110;-68
2021/05/13 01:15:52;;;;;;;18.62;16.00;;;;;;;15.66;72.22;99039.26;2140996;82;29119;-68
2021/05/13 01:18:49;;;;;;;18.87;16.70;;;;;;;15.71;72.24;99041.56;2151401;82;27615;-70
2021/05/13 01:21:51;;;;;;;20.55;16.97;;;;;;;15.75;72.20;99038.91;2152877;82;29588;-71
2021/05/13 01:24:53;;;;;;;22.00;16.80;;;;;;;15.79;72.17;99033.59;2138020;82;32000;-71
2021/05/13 01:27:59;;;;;;;19.95;17.17;;;;;;;15.82;72.18;99022.99;2119057;82;32794;-71
2021/05/13 01:31:01;;;;;;;24.57;18.35;;;;;;;15.86;72.14;99018.58;2151543;82;29369;-71
2021/05/13 01:34:06;;;;;;;21.57;17.60;;;;;;;15.90;72.17;99021.84;2147801;82;27673;-63
2021/05/13 01:37:08;;;;;;;24.05;19.10;;;;;;;15.94;72.11;99027.31;2118425;82;28693;-62
2021/05/13 01:40:11;;;;;;;21.50;17.50;;;;;;;15.99;72.10;99025.53;2116213;84;31378;-63
2021/05/13 01:43:13;;;;;;;22.48;19.10;;;;;;;16.01;72.03;99014.92;2116182;84;33739;-63
2021/05/13 01:46:14;;;;;;;22.77;18.77;;;;;;;16.04;71.98;99011.11;2129665;82;29579;-63
2021/05/13 01:49:19;;;;;;;24.23;20.40;;;;;;;16.05;71.91;99009.60;2080843;84;27632;-71
2021/05/13 01:52:20;;;;;;;24.95;19.02;;;;;;;16.07;71.96;99004.04;2075697;85;28657;-72
2021/05/13 01:55:22;;;;;;;26.15;19.50;;;;;;;16.11;71.94;98998.71;2094171;84;31447;-65
2021/05/13 01:58:24;;;;;;;24.55;20.27;;;;;;;16.13;71.95;98992.67;2110404;84;32990;-73
2021/05/13 02:01:25;;;;;;;27.98;21.10;;;;;;;16.13;71.77;98983.22;2110609;83;29386;-71
2021/05/13 02:04:27;;;;;;;25.75;20.60;;;;;;;16.13;71.78;98982.38;2103803;84;28012;-62
2021/05/13 02:07:29;;;;;;;30.00;20.72;;;;;;;16.14;71.80;98974.59;2075621;85;29380;-63
2021/05/13 02:10:30;;;;;;;27.32;21.90;;;;;;;16.13;71.76;98964.81;2075818;85;31392;-62
2021/05/13 02:13:31;;;;;;;25.32;21.40;;;;;;;16.11;71.77;98963.59;2075734;85;33315;-62
2021/05/13 02:16:33;;;;;;;30.15;22.42;;;;;;;16.09;71.64;98951.59;2106886;84;30122;-63
2021/05/13 02:19:36;;;;;;;25.55;20.75;;;;;;;16.06;71.62;98950.52;2110616;84;27596;-64
2021/05/13 02:22:38;;;;;;;28.05;21.12;;;;;;;16.01;71.72;98950.61;2110789;84;28991;-64
2021/05/13 02:25:39;;;;;;;27.80;22.42;;;;;;;15.92;71.64;98939.66;2090295;84;30974;-63
2021/05/13 02:28:41;;;;;;;24.82;20.88;;;;;;;15.88;71.79;98937.40;2075569;85;32986;-64
2021/05/13 02:31:42;;;;;;;31.05;21.40;;;;;;;15.85;71.76;98918.74;2075711;85;29573;-63
2021/05/13 02:34:43;;;;;;;29.37;21.97;;;;;;;15.80;72.01;98910.56;2104056;84;27611;-64
2021/05/13 02:37:45;;;;;;;28.38;22.00;;;;;;;15.78;72.16;98895.52;2110612;84;29312;-63
2021/05/13 02:40:46;;;;;;;32.10;22.87;;;;;;;15.74;72.06;98890.05;2110698;84;31001;-66
2021/05/13 02:43:48;;;;;;;30.43;22.85;;;;;;;15.70;72.20;98884.09;2093148;84;33715;-66
2021/05/13 02:46:50;;;;;;;32.60;24.30;;;;;;;15.66;72.25;98884.02;2078087;84;29636;-65
2021/05/13 02:49:53;;;;;;;32.08;24.18;;;;;;;15.63;72.34;98887.03;2095114;84;27587;-65
2021/05/13 02:52:54;;;;;;;28.57;23.95;;;;;;;15.58;72.45;98892.84;2081760;84;28590;-63
2021/05/13 02:55:56;;;;;;;34.70;24.47;;;;;;;15.56;72.79;98890.77;2110710;84;31364;-63
2021/05/13 02:58:57;;;;;;;31.05;23.35;;;;;;;15.52;72.50;98893.43;2110529;84;33305;-65
2021/05/13 03:01:58;;;;;;;27.95;21.70;;;;;;;15.52;72.49;98906.92;2109579;84;30013;-64
2021/05/13 03:05:00;;;;;;;31.85;23.77;;;;;;;15.52;72.58;98920.42;2094660;84;27596;-64
2021/05/13 03:08:04;;;;;;;27.27;21.60;;;;;;;15.52;72.47;98923.12;2110445;84;28976;-63
2021/05/13 03:11:04;;;;;;;33.05;21.97;;;;;;;15.54;72.55;98927.88;2106535;82;31468;-62
2021/05/13 03:14:06;;;;;;;38.05;22.00;;;;;;;15.55;72.50;98925.55;2075651;85;33320;-63
2021/05/13 03:17:07;;;;;;;31.77;23.80;;;;;;;15.57;72.45;98924.03;2075667;85;29631;-63
2021/05/13 03:20:14;;;;;;;30.10;23.05;;;;;;;15.60;72.40;98931.86;2075666;85;27631;-62
2021/05/13 03:23:14;;;;;;;;;;;;;;;15.62;72.28;98928.52;2106165;84;28621;-62
2021/05/13 03:26:16;;;;;;;35.30;24.32;;;;;;;15.68;72.29;98931.98;2111066;84;31142;-62
2021/05/13 03:29:18;;;;;;;33.65;23.90;;;;;;;15.73;72.27;98932.89;2091148;84;34056;-62
2021/05/13 03:32:19;;;;;;;31.07;24.23;;;;;;;15.79;72.26;98937.25;2092307;84;29374;-62
2021/05/13 03:35:20;;;;;;;31.42;22.87;;;;;;;15.87;72.21;98941.96;2110469;84;27781;-62
2021/05/13 03:38:22;;;;;;;36.15;25.52;;;;;;;15.93;72.16;98938.66;2110587;83;29787;-64
2021/05/13 03:41:23;;;;;;;36.93;25.23;;;;;;;15.97;72.00;98937.03;2104917;84;31019;-64
2021/05/13 03:44:25;;;;;;;32.63;24.15;;;;;;;15.98;71.95;98937.39;2075601;85;34144;-67
2021/05/13 03:47:27;;;;;;;37.28;25.02;;;;;;;15.98;71.96;98938.73;2075521;84;30235;-63
2021/05/13 03:50:31;;;;;;;30.57;24.87;;;;;;;16.00;71.91;98942.15;2108463;84;27608;-64
2021/05/13 03:53:33;;;;;;;33.60;24.00;;;;;;;16.03;71.92;98945.41;2087363;82;28619;-63
2021/05/13 03:56:34;;;;;;;36.25;23.85;;;;;;;16.08;71.93;98946.31;2074919;84;30962;-64
2021/05/13 03:59:38;;;;;;;36.28;23.30;;;;;;;16.12;71.84;98943.68;2075236;85;33700;-63
2021/05/13 04:02:41;;;;;;;35.37;25.70;;;;;;;16.19;71.86;98931.79;2095227;84;29125;-63
2021/05/13 04:05:42;;;;;;;33.05;24.25;;;;;;;16.24;71.78;98926.30;2110687;84;28262;-63
2021/05/13 04:08:44;;;;;;;38.25;25.92;;;;;;;16.27;71.67;98918.41;2105472;84;29725;-63
2021/05/13 04:11:45;;;;;;;39.08;25.30;;;;;;;16.32;71.60;98913.91;2083722;84;31500;-64
2021/05/13 04:14:46;;;;;;;38.35;27.20;;;;;;;16.33;71.58;98915.09;2110581;84;33315;-63
2021/05/13 04:17:47;;;;;;;37.80;26.50;;;;;;;16.38;71.53;98918.73;2110754;83;29404;-65
2021/05/13 04:20:49;;;;;;;37.83;26.65;;;;;;;16.40;71.51;98916.22;2077309;83;27684;-64
2021/05/13 04:23:51;;;;;;;33.30;24.67;;;;;;;16.43;71.34;98916.94;2075475;85;29028;-63
2021/05/13 04:26:52;;;;;;;40.35;28.02;;;;;;;16.45;71.39;98909.53;2075575;85;31029;-64
2021/05/13 04:29:54;;;;;;;46.63;28.98;;;;;;;16.49;71.36;98906.86;2079339;84;32945;-63
2021/05/13 04:32:55;;;;;;;44.33;30.40;;;;;;;16.53;71.28;98905.09;2074698;84;29044;-72
2021/05/13 04:35:56;;;;;;;46.30;32.23;;;;;;;16.58;71.26;98899.70;2075488;85;27551;-65
2021/05/13 04:38:57;;;;;;;48.28;29.85;;;;;;;16.61;71.26;98897.58;2086021;84;28927;-70
2021/05/13 04:41:59;;;;;;;46.58;30.37;;;;;;;16.63;71.12;98887.44;2082994;84;30813;-75
2021/05/13 04:45:01;;;;;;;44.98;28.25;;;;;;;16.65;71.05;98888.66;2075516;84;32971;-63
2021/05/13 04:48:07;;;;;;;44.08;30.00;;;;;;;16.66;71.03;98885.78;2077449;84;29754;-65
2021/05/13 04:51:06;;;;;;;38.33;26.00;;;;;;;16.68;70.93;98880.25;2105819;84;27680;-64
2021/05/13 04:54:08;;;;;;;32.50;24.02;;;;;;;16.65;70.85;98875.13;2107495;84;29061;-66
2021/05/13 04:57:09;;;;;;;39.25;25.90;;;;;;;16.66;70.93;98874.13;2112577;84;32124;-69
2021/05/13 05:00:13;;;;;;;35.95;25.57;;;;;;;16.66;70.79;98882.25;2099982;84;33642;-69
2021/05/13 05:03:14;;;;;;;38.35;25.82;;;;;;;16.62;70.80;98882.19;2083880;84;29056;-70
2021/05/13 05:06:16;;;;;;;38.65;25.72;;;;;;;16.61;70.69;98875.08;2083454;84;28258;-70
2021/05/13 05:09:19;;;;;;;33.53;25.60;;;;;;;16.60;70.75;98874.73;2097325;84;28623;-71
2021/05/13 05:12:21;;;;;;;36.55;26.42;;;;;;;16.59;70.84;98875.24;2119597;82;31030;-64
2021/05/13 05:15:22;;;;;;;42.58;27.67;;;;;;;16.58;70.89;98868.13;2119537;84;33658;-73
2021/05/13 05:18:24;;;;;;;40.67;27.40;;;;;;;16.55;70.89;98867.91;2117069;84;29163;-74
2021/05/13 05:21:27;;;;;;;38.88;26.17;;;;;;;16.55;70.92;98865.72;2084380;84;27637;-71
2021/05/13 05:24:29;;;;;;;38.10;26.27;;;;;;;16.54;71.07;98866.23;2084254;85;28576;-73
2021/05/13 05:27:30;;;;;;;46.28;25.32;;;;;;;16.54;71.03;98866.23;2084038;85;32103;-68
2021/05/13 05:30:33;;;;;;;40.17;25.62;;;;;;;16.58;71.13;98867.27;2088457;84;33402;-65
2021/05/13 05:33:35;;;;;;;36.15;25.05;;;;;;;16.60;71.05;98859.38;2090612;84;29080;-69
2021/05/13 05:36:36;;;;;;;41.40;26.90;;;;;;;16.66;71.09;98848.45;2118943;84;27622;-70
2021/05/13 05:39:38;;;;;;;39.33;25.20;;;;;;;16.66;71.01;98843.88;2119344;84;29031;-71
2021/05/13 05:42:39;;;;;;;43.38;26.65;;;;;;;16.71;70.90;98845.63;2093482;83;31472;-72
2021/05/13 05:45:41;;;;;;;38.95;26.93;;;;;;;16.68;70.68;98844.58;2084063;85;34253;-69
2021/05/13 05:48:42;;;;;;;41.58;28.65;;;;;;;16.67;70.73;98843.39;2124300;83;29071;-64
2021/05/13 05:51:44;;;;;;;45.75;28.17;;;;;;;16.67;70.66;98844.75;2154944;81;27573;-63
2021/05/13 05:54:46;;;;;;;39.35;27.40;;;;;;;16.60;70.64;98836.88;2141328;81;28691;-73
2021/05/13 05:57:48;;;;;;;40.88;25.77;;;;;;;16.55;70.70;98848.98;2139735;81;31151;-71
2021/05/13 06:00:50;;;;;;;35.28;24.72;;;;;;;16.52;70.79;98839.85;2139791;81;33668;-63
2021/05/13 06:03:51;;;;;;;38.55;25.88;;;;;;;16.50;70.83;98839.14;2157554;81;29494;-64
2021/05/13 06:06:52;;;;;;;41.77;26.35;;;;;;;16.51;70.96;98835.44;2176443;81;28181;-65
2021/05/13 06:09:55;;;;;;;39.58;26.45;;;;;;;16.52;70.97;98834.45;2176809;81;29062;-68
2021/05/13 06:12:56;;;;;;;43.00;26.65;;;;;;;16.54;71.09;98839.20;2174417;81;31906;-63
2021/05/13 06:15:58;;;;;;;37.53;25.30;;;;;;;16.56;71.11;98839.88;2176435;81;32642;-66
2021/05/13 06:18:59;;;;;;;36.53;26.57;;;;;;;16.56;71.09;98836.34;2149170;81;29394;-75
2021/05/13 06:22:02;;;;;;;41.23;25.57;;;;;;;16.54;71.02;98836.98;2147432;81;27550;-70
2021/05/13 06:25:05;;;;;;;47.45;26.75;;;;;;;16.50;70.99;98836.92;2161100;81;28597;-69
2021/05/13 06:28:07;;;;;;;41.88;25.92;;;;;;;16.52;71.10;98838.98;2139435;83;33154;-73
2021/05/13 06:31:09;;;;;;;36.13;24.07;;;;;;;16.55;71.10;98838.17;2139437;83;33703;-71
2021/05/13 06:34:10;;;;;;;39.88;24.75;;;;;;;16.58;71.06;98828.06;2139427;82;29407;-70
2021/05/13 06:37:11;;;;;;;40.00;26.68;;;;;;;16.62;70.99;98837.58;2176061;81;27583;-67
2021/05/13 06:40:15;;;;;;;43.83;27.75;;;;;;;16.62;70.91;98830.33;2169870;81;29354;-70
2021/05/13 06:43:16;;;;;;;41.18;25.55;;;;;;;16.63;70.93;98831.17;2139240;83;30969;-66
2021/05/13 06:46:21;;;;;;;45.88;27.22;;;;;;;16.63;70.97;98829.30;2149599;81;32901;-65
2021/05/13 06:49:22;;;;;;;;;;;;;;;16.62;70.89;98832.17;2143276;81;30826;-73
2021/05/13 06:52:45;;;;;;;32.67;22.48;;;;;;;16.58;70.79;98829.41;2147942;81;27579;-71
2021/05/13 06:55:51;;;;;;;30.85;22.05;;;;;;;16.51;70.77;98830.03;2096245;84;29336;-70
2021/05/13 06:58:49;;;;;;;30.20;20.20;;;;;;;16.52;70.86;98833.09;2099276;84;30990;-66
2021/05/13 07:01:54;;;;;;;31.07;20.48;;;;;;;16.53;70.82;98833.92;2084095;85;33119;-70
2021/05/13 07:04:54;;;;;;;28.85;18.77;;;;;;;16.61;70.77;98831.34;2084873;83;29197;-71
2021/05/13 07:07:55;;;;;;;25.82;18.82;;;;;;;16.71;70.80;98839.39;2092598;84;27727;-72
2021/05/13 07:10:58;;;;;;;27.67;18.73;;;;;;;16.78;70.57;98832.35;2074997;84;28577;-69
2021/05/13 07:14:00;;;;;;;29.57;18.73;;;;;;;16.85;70.43;98833.45;2085048;84;31032;-69
2021/05/13 07:17:02;;;;;;;30.57;18.50;;;;;;;16.89;70.20;98827.71;2073844;85;32920;-66
2021/05/13 07:20:06;;;;;;;30.52;19.10;;;;;;;16.93;70.23;98829.98;2076762;84;29027;-69
2021/05/13 07:23:08;;;;;;;23.38;17.65;;;;;;;16.96;69.93;98831.55;2075016;85;27640;-69
2021/05/13 07:26:11;;;;;;;29.15;18.87;;;;;;;16.91;69.74;98833.34;2074760;85;29339;-71
2021/05/13 07:29:14;;;;;;;25.70;17.27;;;;;;;16.89;69.89;98835.83;2088776;84;30989;-67
2021/05/13 07:32:15;;;;;;;27.65;20.17;;;;;;;16.86;69.69;98828.88;2110036;84;32953;-71
2021/05/13 07:35:18;;;;;;;23.47;17.40;;;;;;;16.87;69.70;98830.58;2109884;84;29040;-68
2021/05/13 07:38:20;;;;;;;23.98;17.07;;;;;;;16.87;69.70;98830.58;2109668;84;27687;-69
2021/05/13 07:41:21;;;;;;;23.65;17.10;;;;;;;16.92;69.59;98830.98;2135265;83;29688;-70
2021/05/13 07:44:22;;;;;;;24.05;18.17;;;;;;;16.94;69.55;98832.17;2120141;83;31895;-68
2021/05/13 07:47:24;;;;;;;25.43;18.12;;;;;;;16.97;69.56;98829.20;2120701;83;32941;-71
2021/05/13 07:50:26;;;;;;;25.77;18.92;;;;;;;17.03;69.47;98829.95;2131874;83;29197;-68
2021/05/13 07:53:27;;;;;;;27.10;19.02;;;;;;;17.05;69.38;98836.54;2119084;83;27560;-72
2021/05/13 07:56:31;;;;;;;32.17;22.70;;;;;;;17.03;69.27;98832.65;2133606;83;28689;-68
2021/05/13 07:59:32;;;;;;;25.60;18.17;;;;;;;17.00;69.24;98831.59;2134027;83;31001;-68
2021/05/13 08:02:33;;;;;;;24.30;18.45;;;;;;;17.02;69.19;98833.66;2132461;83;32921;-71
2021/05/13 08:05:34;;;;;;;27.70;19.35;;;;;;;17.10;69.45;98834.23;2108404;83;29186;-69
2021/05/13 08:08:36;;;;;;;25.90;16.52;;;;;;;17.25;69.54;98825.91;2134283;83;27638;-69
2021/05/13 08:11:37;;;;;;;25.97;20.85;;;;;;;17.41;69.14;98804.87;2134592;83;28644;-71
2021/05/13 08:14:38;;;;;;;29.32;20.00;;;;;;;17.41;69.14;98804.87;2098681;83;31722;-71
2021/05/13 08:17:41;;;;;;;22.98;16.15;;;;;;;17.69;68.98;98823.72;2141654;81;32941;-70
2021/05/13 08:20:42;;;;;;;20.12;14.80;;;;;;;17.86;68.58;98823.30;2175908;81;29004;-68
2021/05/13 08:23:44;;;;;;;19.60;14.70;;;;;;;18.04;68.27;98824.61;2157687;81;27623;-66
2021/05/13 08:26:45;;;;;;;21.85;14.30;;;;;;;18.18;68.04;98816.39;2178647;81;28604;-70
2021/05/13 08:29:46;;;;;;;18.25;13.75;;;;;;;18.28;67.94;98824.41;2162250;81;30955;-68
2021/05/13 08:32:47;;;;;;;18.52;14.63;;;;;;;18.38;67.54;98813.44;2158602;81;32975;-66
2021/05/13 08:35:49;;;;;;;20.40;14.50;;;;;;;18.48;67.42;98820.08;2142611;81;29085;-67
2021/05/13 08:38:51;;;;;;;18.77;13.68;;;;;;;18.56;67.26;98824.16;2178557;81;27577;-69
2021/05/13 08:41:52;;;;;;;21.85;15.20;;;;;;;18.78;67.09;98819.98;2142173;81;28573;-66
2021/05/13 08:44:54;;;;;;;22.50;14.93;;;;;;;19.12;66.80;98823.12;2091891;83;30846;-68
2021/05/13 08:47:55;;;;;;;19.98;13.55;;;;;;;19.40;66.17;98822.83;2070098;85;34230;-68
2021/05/13 08:51:03;;;;;;;20.02;14.63;;;;;;;19.63;65.48;98826.19;2091069;85;29010;-70
2021/05/13 08:54:01;;;;;;;;;;;;;;;19.73;64.97;98824.65;2093191;83;27658;-69
2021/05/13 08:57:03;;;;;;;19.32;14.35;;;;;;;19.90;64.86;98818.72;2077580;84;29313;-69
2021/05/13 09:00:09;;;;;;;19.82;14.73;;;;;;;20.08;64.38;98821.21;2095548;83;30976;-67
2021/05/13 09:03:11;;;;;;;20.48;14.93;;;;;;;20.21;64.33;98816.59;2078423;85;32987;-65
2021/05/13 09:06:28;;;;;;;19.52;15.25;;;;;;;20.36;63.53;98824.84;2144347;81;29025;-68
2021/05/13 09:09:28;;;;;;;22.10;17.05;;;;;;;20.36;62.66;98831.64;2171640;81;27628;-70
2021/05/13 09:12:40;;;;;;;20.95;16.42;;;;;;;20.26;62.41;98831.02;2174193;81;28601;-72
2021/05/13 09:15:42;;;;;;;20.85;15.98;;;;;;;20.10;62.39;98827.33;2178228;81;31712;-66
2021/05/13 09:18:44;;;;;;;21.50;16.42;;;;;;;19.95;62.35;98833.14;2177576;81;34207;-66
2021/05/13 09:22:04;;;;;;;23.60;16.60;;;;;;;19.81;62.46;98835.52;2178492;81;29015;-68
2021/05/13 09:25:10;;;;;;;21.62;17.77;;;;;;;19.79;62.48;98831.26;2123997;82;27659;-63
2021/05/13 09:28:11;;;;;;;25.95;19.80;;;;;;;19.92;62.79;98831.63;2107391;83;29377;-65
2021/05/13 09:31:35;;;;;;;22.15;17.85;;;;;;;20.10;62.29;98830.05;2085633;84;31556;-64
2021/05/13 09:34:37;;;;;;;25.55;17.40;;;;;;;20.22;61.79;98825.09;2110037;83;34206;-65
2021/05/13 09:37:50;;;;;;;22.30;16.90;;;;;;;20.37;61.73;98822.98;2119209;83;28999;-65
2021/05/13 09:40:52;;;;;;;21.42;16.40;;;;;;;20.48;61.61;98819.37;2158378;81;27629;-67
2021/05/13 09:43:54;;;;;;;21.80;16.90;;;;;;;20.57;61.19;98812.52;2142510;81;29278;-68
2021/05/13 09:46:56;;;;;;;23.62;17.62;;;;;;;20.63;61.25;98806.38;2160948;81;31347;-63
2021/05/13 09:50:08;;;;;;;23.55;18.67;;;;;;;20.73;61.22;98800.19;2149900;81;33342;-61
2021/05/13 09:53:10;;;;;;;28.12;17.17;;;;;;;20.84;60.83;98800.85;2152699;81;29101;-64
2021/05/13 09:56:29;;;;;;;25.00;17.77;;;;;;;20.89;60.76;98804.73;2161348;81;27608;-65
2021/05/13 09:59:34;;;;;;;26.37;18.65;;;;;;;20.89;60.60;98802.50;2102631;84;28564;-65
2021/05/13 10:02:36;;;;;;;26.33;19.57;;;;;;;20.85;60.37;98811.55;2098685;83;30969;-64
2021/05/13 10:05:40;;;;;;;27.05;18.90;;;;;;;20.76;60.15;98799.86;2101308;83;33017;-63
2021/05/13 10:08:44;;;;;;;21.70;18.30;;;;;;;20.73;60.02;98797.98;2101884;83;27766;-63
2021/05/13 10:11:57;;;;;;;24.60;17.37;;;;;;;20.65;59.91;98798.36;2100920;83;27709;-67
2021/05/13 10:14:59;;;;;;;22.52;18.15;;;;;;;20.58;59.94;98796.53;2102485;83;29227;-62
2021/05/13 10:18:04;;;;;;;25.68;17.77;;;;;;;20.53;60.07;98793.48;2105296;84;31562;-63
2021/05/13 10:21:20;;;;;;;25.97;19.77;;;;;;;20.49;59.63;98797.95;2092631;83;32943;-63
2021/05/13 10:24:22;;;;;;;26.17;17.62;;;;;;;20.46;59.94;98794.22;2097589;83;29401;-64
2021/05/13 10:27:30;;;;;;;27.23;19.43;;;;;;;20.49;59.93;98796.59;2091462;84;28314;-64
2021/05/13 10:30:34;;;;;;;22.93;16.57;;;;;;;20.49;59.85;98793.88;2104920;84;28578;-71
2021/05/13 10:33:50;;;;;;;23.50;17.95;;;;;;;20.49;59.79;98791.64;2119713;83;31025;-69
2021/05/13 10:37:08;;;;;;;23.12;18.17;;;;;;;20.57;59.81;98787.53;2153042;81;33756;-70
2021/05/13 10:43:34;;;;;;;22.52;17.85;;;;;;;20.79;59.40;98786.40;2149455;81;27612;-71
2021/05/13 10:46:37;;;;;;;21.07;16.12;;;;;;;20.85;59.16;98786.22;2094996;83;28630;-71
2021/05/13 10:49:46;;;;;;;18.95;15.00;;;;;;;20.79;58.83;98779.59;2148235;81;31124;-71
2021/05/13 10:52:48;;;;;;;20.23;15.13;;;;;;;20.68;58.67;98785.42;2178150;81;33780;-66
2021/05/13 10:55:49;;;;;;;22.62;16.02;;;;;;;20.56;58.84;98783.61;2155974;81;28973;-66
2021/05/13 10:59:12;;;;;;;21.68;16.17;;;;;;;20.45;58.71;98784.86;2151732;81;27594;-63
2021/05/13 11:02:41;;;;;;;27.75;16.97;;;;;;;20.43;58.96;98784.22;2152027;81;28636;-66
2021/05/13 11:05:43;;;;;;;24.75;16.42;;;;;;;20.48;58.85;98782.65;2143957;81;31609;-67
2021/05/13 11:08:46;;;;;;;21.48;15.75;;;;;;;20.54;59.04;98785.16;2165328;81;33323;-67
2021/05/13 11:12:16;;;;;;;21.62;16.02;;;;;;;20.48;58.61;98785.38;2142412;81;30458;-66
2021/05/13 11:15:23;;;;;;;19.55;15.15;;;;;;;20.47;58.77;98784.17;2140781;82;27611;-69
2021/05/13 11:18:25;;;;;;;21.95;16.23;;;;;;;20.44;58.82;98781.30;2140109;83;28596;-66
2021/05/13 11:21:55;;;;;;;23.10;16.95;;;;;;;20.49;58.65;98776.19;2155234;81;30977;-65
2021/05/13 11:24:56;;;;;;;21.50;15.63;;;;;;;20.57;58.50;98783.45;2177201;81;33979;-66
2021/05/13 11:27:58;;;;;;;19.40;16.05;;;;;;;20.81;58.81;98778.08;2178258;81;28899;-64
2021/05/13 11:31:12;;;;;;;22.17;15.55;;;;;;;21.03;58.57;98775.02;2178531;81;28224;-64
2021/05/13 11:34:15;;;;;;;23.43;15.33;;;;;;;21.21;57.85;98773.33;2165411;81;28612;-62
2021/05/13 11:37:38;;;;;;;19.25;14.60;;;;;;;21.24;57.55;98767.53;2153219;81;30864;-62
2021/05/13 11:40:40;;;;;;;19.82;13.93;;;;;;;21.30;57.48;98767.30;2178335;81;33829;-62
2021/05/13 11:43:41;;;;;;;19.65;15.32;;;;;;;21.42;57.27;98764.98;2178389;81;28976;-65
2021/05/13 11:46:43;;;;;;;20.50;16.30;;;;;;;21.47;57.07;98766.13;2141800;81;27678;-63
2021/05/13 11:49:47;;;;;;;20.43;16.55;;;;;;;21.54;56.92;98768.95;2167770;81;28629;-61
2021/05/13 11:53:12;;;;;;;19.27;15.38;;;;;;;21.68;56.87;98767.32;2176179;81;30992;-63
2021/05/13 11:56:17;;;;;;;22.98;16.52;;;;;;;21.81;56.62;98762.59;2176910;81;33542;-62
2021/05/13 11:59:18;;;;;;;;;;;;;;;21.96;56.36;98753.90;2161987;81;29584;-62
2021/05/13 12:02:20;;;;;;;22.05;15.90;;;;;;;22.11;56.12;98755.23;2139883;83;27638;-63
2021/05/13 12:05:21;;;;;;;18.65;14.53;;;;;;;22.17;55.95;98749.56;2139884;83;28624;-63
2021/05/13 12:08:23;;;;;;;23.18;17.50;;;;;;;22.18;55.97;98743.58;2155543;81;31055;-63
2021/05/13 12:11:28;;;;;;;20.57;16.60;;;;;;;22.14;55.78;98751.30;2176606;81;33003;-64
2021/05/13 12:14:32;;;;;;;19.80;16.30;;;;;;;22.02;55.18;98749.56;2177188;81;30927;-63
2021/05/13 12:17:33;;;;;;;25.92;17.50;;;;;;;21.86;55.37;98747.86;2174954;81;27605;-64
2021/05/13 12:20:40;;;;;;;20.25;16.82;;;;;;;21.84;55.37;98740.42;2170944;81;28591;-62
2021/05/13 12:23:46;;;;;;;23.10;18.20;;;;;;;21.84;55.26;98741.25;2139849;83;31581;-63
2021/05/13 12:26:47;;;;;;;21.42;17.50;;;;;;;21.76;55.29;98738.59;2139684;83;33525;-62
2021/05/13 12:29:51;;;;;;;22.67;17.48;;;;;;;21.74;55.57;98739.83;2119478;81;29939;-66
2021/05/13 12:32:52;;;;;;;24.87;16.87;;;;;;;21.82;55.52;98737.86;2177058;81;27482;-62
2021/05/13 12:35:54;;;;;;;23.05;17.07;;;;;;;21.92;55.20;98732.66;2176904;81;29644;-66
2021/05/13 12:38:59;;;;;;;22.30;16.73;;;;;;;21.98;54.96;98738.70;2157646;81;32118;-62
2021/05/13 12:42:29;;;;;;;18.85;15.75;;;;;;;22.10;55.07;98735.81;2139560;83;33796;-64
2021/05/13 12:45:42;;;;;;;22.98;16.65;;;;;;;22.29;55.39;98737.63;2135699;81;29073;-63
2021/05/13 12:48:47;;;;;;;18.87;16.45;;;;;;;22.43;54.76;98733.22;2152356;81;27610;-62
2021/05/13 12:52:10;;;;;;;17.55;14.78;;;;;;;22.46;54.76;98736.93;2186050;81;28587;-63
2021/05/13 12:55:15;;;;;;;27.70;16.17;;;;;;;22.48;54.50;98729.91;2155016;81;31693;-62
2021/05/13 12:58:20;;;;;;;20.40;14.73;;;;;;;22.51;54.45;98735.81;2150235;82;33512;-66
2021/05/13 13:01:22;;;;;;;17.45;14.90;;;;;;;22.59;54.24;98732.12;2150207;82;29578;-62
2021/05/13 13:04:51;;;;;;;22.50;15.85;;;;;;;22.63;53.91;98735.33;2152713;81;27662;-65
2021/05/13 13:07:53;;;;;;;17.05;14.40;;;;;;;22.61;53.95;98735.00;2186957;81;28609;-62
2021/05/13 13:10:55;;;;;;;19.07;15.28;;;;;;;22.62;54.20;98735.83;2188016;81;31170;-67
2021/05/13 13:14:01;;;;;;;17.70;13.98;;;;;;;22.59;53.81;98734.34;2185401;81;32919;-65
2021/05/13 13:17:00;;;;;;;21.27;15.43;;;;;;;22.50;53.75;98729.20;2187064;81;29044;-64
2021/05/13 13:20:11;;;;;;;20.68;14.40;;;;;;;22.46;53.85;98728.74;2184101;81;27557;-66
2021/05/13 13:23:25;;;;;;;23.67;15.80;;;;;;;22.46;54.01;98737.77;2149853;82;29346;-64
2021/05/13 13:26:31;;;;;;;19.15;15.40;;;;;;;22.40;53.25;98734.92;2186991;81;32336;-64
2021/05/13 13:29:33;;;;;;;17.95;14.85;;;;;;;22.28;53.63;98735.93;2187634;81;32934;-66
2021/05/13 13:32:35;;;;;;;16.25;13.88;;;;;;;22.23;53.48;98741.97;2187894;81;29084;-63
2021/05/13 13:35:39;;;;;;;15.83;13.90;;;;;;;22.10;53.19;98736.34;2187370;81;27637;-66
2021/05/13 13:38:42;;;;;;;20.20;14.80;;;;;;;21.97;53.82;98738.38;2153616;81;28622;-62
2021/05/13 13:42:30;;;;;;;17.45;13.45;;;;;;;21.87;53.82;98736.45;2159006;81;30437;-65
2021/05/13 13:45:32;;;;;;;19.98;14.25;;;;;;;21.78;53.87;98729.72;2188027;81;32924;-63
2021/05/13 13:48:34;;;;;;;17.95;14.03;;;;;;;21.58;53.88;98719.87;2177072;81;29003;-66
2021/05/13 13:51:36;;;;;;;20.95;14.13;;;;;;;21.44;53.94;98720.17;2148785;81;27633;-67
2021/05/13 13:54:39;;;;;;;17.40;13.65;;;;;;;21.32;54.34;98722.52;2144018;81;30076;-67
2021/05/13 13:57:41;;;;;;;15.65;13.48;;;;;;;21.32;54.53;98733.92;2142151;83;31735;-66
2021/05/13 14:00:44;;;;;;;19.60;15.00;;;;;;;21.35;54.63;98733.55;2143169;83;33307;-65
2021/05/13 14:03:46;;;;;;;19.12;15.18;;;;;;;21.38;54.62;98733.19;2143309;83;29581;-65
2021/05/13 14:06:48;;;;;;;17.32;14.38;;;;;;;21.43;54.76;98735.35;2146250;81;28330;-63
2021/05/13 14:09:50;;;;;;;23.25;15.60;;;;;;;21.42;54.77;98728.21;2180645;81;28638;-67
2021/05/13 14:12:52;;;;;;;19.65;14.53;;;;;;;21.46;54.78;98734.45;2180645;81;32206;-65